createdAt,value
2023-11-01T00:02:03.011Z,12.80
2023-11-01T00:04:29.805Z,12.80
2023-11-01T00:06:56.660Z,12.80
2023-11-01T00:09:23.458Z,12.80
2023-11-01T00:11:50.188Z,12.80
2023-11-01T00:14:17.427Z,12.90
2023-11-01T00:16:44.529Z,12.90
2023-11-01T00:19:11.388Z,12.90
2023-11-01T00:21:39.767Z,12.90
2023-11-01T00:24:06.745Z,12.90
2023-11-01T00:26:33.557Z,12.90
2023-11-01T00:29:00.386Z,12.90
2023-11-01T00:31:27.182Z,12.90
2023-11-01T00:33:54.115Z,12.90
2023-11-01T00:36:20.912Z,12.90
2023-11-01T00:38:47.691Z,12.90
2023-11-01T00:41:14.469Z,12.90
2023-11-01T00:43:41.270Z,12.90
2023-11-01T00:46:07.992Z,12.90
2023-11-01T00:48:34.870Z,12.90
2023-11-01T00:51:01.702Z,12.90
2023-11-01T00:53:28.592Z,12.90
2023-11-01T00:55:55.349Z,12.90
2023-11-01T00:58:23.853Z,12.90
2023-11-01T01:00:50.664Z,12.90
2023-11-01T01:03:17.823Z,12.90
2023-11-01T01:05:44.765Z,12.90
2023-11-01T01:08:11.839Z,12.90
2023-11-01T01:10:38.684Z,12.90
2023-11-01T01:13:05.614Z,12.90
2023-11-01T01:15:32.364Z,12.90
2023-11-01T01:17:59.458Z,12.90
2023-11-01T01:20:26.460Z,12.90
2023-11-01T01:22:53.297Z,12.90
2023-11-01T01:25:20.086Z,12.80
2023-11-01T01:27:46.828Z,12.80
2023-11-01T01:30:14.234Z,12.80
2023-11-01T01:32:41.039Z,12.80
2023-11-01T01:35:08.169Z,12.80
2023-11-01T01:37:35.037Z,12.80
2023-11-01T01:40:01.849Z,12.80
2023-11-01T01:42:28.620Z,12.80
2023-11-01T01:44:55.426Z,12.80
2023-11-01T01:47:22.693Z,12.80
2023-11-01T01:49:49.548Z,12.80
2023-11-01T01:52:16.648Z,12.70
2023-11-01T01:54:44.141Z,12.70
2023-11-01T01:57:11.642Z,12.70
2023-11-01T01:59:38.912Z,12.70
2023-11-01T02:02:07.522Z,12.70
2023-11-01T02:04:34.594Z,12.70
2023-11-01T02:07:01.442Z,12.70
2023-11-01T02:09:28.307Z,12.70
2023-11-01T02:11:55.057Z,12.70
2023-11-01T02:14:22.586Z,12.70
2023-11-01T02:16:51.644Z,12.70
2023-11-01T02:19:18.649Z,12.70
2023-11-01T02:21:45.372Z,12.60
2023-11-01T02:24:12.212Z,12.60
2023-11-01T02:26:39.004Z,12.60
2023-11-01T02:29:06.322Z,12.60
2023-11-01T02:31:33.372Z,12.60
2023-11-01T02:34:00.269Z,12.60
2023-11-01T02:36:27.166Z,12.60
2023-11-01T02:38:53.903Z,12.60
2023-11-01T02:41:20.694Z,12.60
2023-11-01T02:43:47.442Z,12.50
2023-11-01T02:46:14.185Z,12.60
2023-11-01T02:48:40.993Z,12.50
2023-11-01T02:51:07.872Z,12.60
2023-11-01T02:53:34.681Z,12.60
2023-11-01T02:56:01.493Z,12.60
2023-11-01T02:58:29.777Z,12.60
2023-11-01T03:00:56.573Z,12.60
2023-11-01T03:03:23.557Z,12.60
2023-11-01T03:05:50.692Z,12.60
2023-11-01T03:08:17.607Z,12.60
2023-11-01T03:10:44.493Z,12.60
2023-11-01T03:13:11.391Z,12.60
2023-11-01T03:15:38.522Z,12.60
2023-11-01T03:18:06.173Z,12.60
2023-11-01T03:20:34.388Z,12.60
2023-11-01T03:23:02.292Z,12.60
2023-11-01T03:25:29.416Z,12.60
2023-11-01T03:27:56.346Z,12.60
2023-11-01T03:30:23.587Z,12.60
2023-11-01T03:32:50.938Z,12.60
2023-11-01T03:35:17.830Z,12.60
2023-11-01T03:37:44.619Z,12.60
2023-11-01T03:40:11.461Z,12.60
2023-11-01T03:42:38.225Z,12.60
2023-11-01T03:45:06.045Z,12.70
2023-11-01T03:47:32.883Z,12.60
2023-11-01T03:49:59.692Z,12.60
2023-11-01T03:52:26.502Z,12.60
2023-11-01T03:54:53.216Z,12.60
2023-11-01T03:57:20.725Z,12.60
2023-11-01T03:59:47.611Z,12.60
2023-11-01T04:02:14.388Z,12.60
2023-11-01T04:04:41.156Z,12.60
2023-11-01T04:07:08.051Z,12.60
2023-11-01T04:09:34.841Z,12.70
2023-11-01T04:12:01.636Z,12.60
2023-11-01T04:14:28.501Z,12.70
2023-11-01T04:16:56.583Z,12.70
2023-11-01T04:19:23.377Z,12.70
2023-11-01T04:21:50.125Z,12.70
2023-11-01T04:24:16.846Z,12.80
2023-11-01T04:26:43.764Z,12.70
2023-11-01T04:29:10.498Z,12.70
2023-11-01T04:31:37.323Z,12.80
2023-11-01T04:34:04.135Z,12.80
2023-11-01T04:36:30.932Z,12.80
2023-11-01T04:38:58.432Z,12.80
2023-11-01T04:41:28.741Z,12.80
2023-11-01T04:43:56.316Z,12.90
2023-11-01T04:46:23.122Z,12.90
2023-11-01T04:48:51.226Z,12.90
2023-11-01T04:51:18.429Z,13.00
2023-11-01T04:53:45.893Z,13.00
2023-11-01T04:56:12.921Z,13.00
2023-11-01T04:58:39.813Z,13.10
2023-11-01T05:01:08.712Z,13.10
2023-11-01T05:03:37.777Z,13.10
2023-11-01T05:06:05.709Z,13.10
2023-11-01T05:08:32.628Z,13.10
2023-11-01T05:10:59.842Z,13.20
2023-11-01T05:13:26.603Z,13.20
2023-11-01T05:15:54.223Z,13.20
2023-11-01T05:18:21.179Z,13.30
2023-11-01T05:20:48.128Z,13.30
2023-11-01T05:23:15.053Z,13.30
2023-11-01T05:25:41.994Z,13.30
2023-11-01T05:28:08.892Z,13.30
2023-11-01T05:30:35.723Z,13.30
2023-11-01T05:33:03.085Z,13.30
2023-11-01T05:35:29.928Z,13.40
2023-11-01T05:37:56.732Z,13.40
2023-11-01T05:40:23.582Z,13.40
2023-11-01T05:42:50.335Z,13.40
2023-11-01T05:45:17.947Z,13.40
2023-11-01T05:47:51.908Z,13.40
2023-11-01T05:50:21.220Z,13.40
2023-11-01T05:52:48.010Z,13.40
2023-11-01T05:55:23.826Z,13.40
2023-11-01T05:57:57.081Z,13.50
2023-11-01T06:00:24.199Z,13.40
2023-11-01T06:02:51.147Z,13.50
2023-11-01T06:05:18.150Z,13.50
2023-11-01T06:07:45.016Z,13.50
2023-11-01T06:10:11.924Z,13.50
2023-11-01T06:12:38.894Z,13.50
2023-11-01T06:15:06.379Z,13.50
2023-11-01T06:17:34.267Z,13.40
2023-11-01T06:20:01.837Z,13.50
2023-11-01T06:22:29.206Z,13.50
2023-11-01T06:24:56.070Z,13.50
2023-11-01T06:27:22.851Z,13.50
2023-11-01T06:29:49.621Z,13.50
2023-11-01T06:32:16.422Z,13.50
2023-11-01T06:34:43.202Z,13.50
2023-11-01T06:37:09.974Z,13.50
2023-11-01T06:39:36.947Z,13.50
2023-11-01T06:42:03.853Z,13.50
2023-11-01T06:44:33.702Z,13.50
2023-11-01T06:47:00.474Z,13.50
2023-11-01T06:49:28.859Z,13.50
2023-11-01T06:51:57.616Z,13.50
2023-11-01T06:54:24.338Z,13.50
2023-11-01T06:56:51.171Z,13.50
2023-11-01T06:59:18.034Z,13.50
2023-11-01T07:01:44.825Z,13.50
2023-11-01T07:04:12.231Z,13.50
2023-11-01T07:06:39.364Z,13.50
2023-11-01T07:09:09.083Z,13.50
2023-11-01T07:11:36.270Z,13.60
2023-11-01T07:14:03.153Z,13.60
2023-11-01T07:16:29.968Z,13.60
2023-11-01T07:18:59.153Z,13.60
2023-11-01T07:21:26.214Z,13.60
2023-11-01T07:23:53.046Z,13.60
2023-11-01T07:26:19.880Z,13.60
2023-11-01T07:28:46.758Z,13.60
2023-11-01T07:31:14.773Z,13.60
2023-11-01T07:33:43.603Z,13.70
2023-11-01T07:36:11.992Z,13.70
2023-11-01T07:38:41.569Z,13.70
2023-11-01T07:41:10.215Z,13.70
2023-11-01T07:43:36.981Z,13.70
2023-11-01T07:46:04.042Z,13.80
2023-11-01T07:48:31.041Z,13.70
2023-11-01T07:50:58.717Z,13.70
2023-11-01T07:53:25.453Z,13.70
2023-11-01T07:55:54.574Z,13.80
2023-11-01T07:58:21.575Z,13.80
2023-11-01T08:00:48.402Z,13.80
2023-11-01T08:03:15.256Z,13.80
2023-11-01T08:05:42.450Z,13.80
2023-11-01T08:08:09.664Z,13.80
2023-11-01T08:10:36.706Z,13.80
2023-11-01T08:13:03.732Z,13.80
2023-11-01T08:15:34.331Z,13.80
2023-11-01T08:18:03.656Z,13.80
2023-11-01T08:20:33.919Z,13.80
2023-11-01T08:23:00.764Z,13.80
2023-11-01T08:25:28.148Z,13.80
2023-11-01T08:27:54.991Z,13.90
2023-11-01T08:30:21.822Z,13.90
2023-11-01T08:32:48.889Z,13.90
2023-11-01T08:35:15.913Z,13.90
2023-11-01T08:37:42.773Z,14.00
2023-11-01T08:40:10.274Z,14.00
2023-11-01T08:42:37.041Z,14.00
2023-11-01T08:45:04.044Z,14.10
2023-11-01T08:47:44.478Z,14.10
2023-11-01T08:50:16.108Z,14.10
2023-11-01T08:52:44.810Z,14.20
2023-11-01T08:55:15.811Z,14.20
2023-11-01T08:57:44.426Z,14.20
2023-11-01T09:00:13.848Z,14.20
2023-11-01T09:02:40.897Z,14.30
2023-11-01T09:05:09.187Z,14.30
2023-11-01T09:07:37.673Z,14.30
2023-11-01T09:10:04.789Z,14.30
2023-11-01T09:12:31.659Z,14.40
2023-11-01T09:14:58.738Z,14.40
2023-11-01T09:17:25.947Z,14.40
2023-11-01T09:19:53.214Z,14.40
2023-11-01T09:22:19.939Z,14.40
2023-11-01T09:24:46.654Z,14.50
2023-11-01T09:27:13.575Z,14.40
2023-11-01T09:29:40.431Z,14.50
2023-11-01T09:32:07.757Z,14.50
2023-11-01T09:34:34.476Z,14.60
2023-11-01T09:37:01.253Z,14.60
2023-11-01T09:39:28.113Z,14.60
2023-11-01T09:42:24.932Z,14.60
2023-11-01T09:44:57.260Z,14.70
2023-11-01T09:47:28.563Z,14.70
2023-11-01T09:49:57.006Z,14.70
2023-11-01T09:52:24.944Z,14.60
2023-11-01T09:54:52.243Z,14.60
2023-11-01T09:57:21.908Z,14.60
2023-11-01T09:59:49.005Z,14.60
2023-11-01T10:02:16.209Z,14.60
2023-11-01T10:04:43.395Z,14.60
2023-11-01T10:07:11.712Z,14.60
2023-11-01T10:09:40.460Z,14.60
2023-11-01T10:12:11.008Z,14.60
2023-11-01T10:14:38.489Z,14.60
2023-11-01T10:17:05.797Z,14.60
2023-11-01T10:19:32.979Z,14.60
2023-11-01T10:22:00.110Z,14.60
2023-11-01T10:24:27.403Z,14.70
2023-11-01T10:26:55.877Z,14.80
2023-11-01T10:29:24.384Z,14.90
2023-11-01T10:31:55.130Z,14.90
2023-11-01T10:34:31.303Z,15.00
2023-11-01T10:36:59.818Z,15.00
2023-11-01T10:39:27.566Z,15.00
2023-11-01T10:41:56.167Z,15.10
2023-11-01T10:44:24.527Z,15.10
2023-11-01T10:46:51.720Z,15.10
2023-11-01T10:49:18.554Z,15.10
2023-11-01T10:51:46.074Z,15.10
2023-11-01T10:54:13.519Z,15.00
2023-11-01T10:56:41.124Z,15.00
2023-11-01T10:59:26.535Z,15.00
2023-11-01T11:02:19.663Z,15.00
2023-11-01T11:04:58.162Z,15.00
2023-11-01T11:07:43.975Z,14.90
2023-11-01T11:10:26.824Z,14.90
2023-11-01T11:13:18.395Z,14.90
2023-11-01T11:15:48.926Z,14.90
2023-11-01T11:18:22.219Z,15.00
2023-11-01T11:20:53.242Z,15.00
2023-11-01T11:23:23.182Z,15.00
2023-11-01T11:25:52.602Z,15.00
2023-11-01T11:28:19.528Z,15.00
2023-11-01T11:30:46.734Z,15.10
2023-11-01T11:33:15.382Z,15.20
2023-11-01T11:35:42.961Z,15.30
2023-11-01T11:38:30.437Z,15.30
2023-11-01T11:41:19.115Z,15.30
2023-11-01T11:44:05.041Z,15.40
2023-11-01T11:46:45.653Z,15.40
2023-11-01T11:49:29.483Z,15.40
2023-11-01T11:51:56.275Z,15.50
2023-11-01T11:54:25.084Z,15.60
2023-11-01T11:56:56.811Z,15.50
2023-11-01T11:59:25.807Z,15.60
2023-11-01T12:01:54.775Z,15.70
2023-11-01T12:04:22.395Z,15.80
2023-11-01T12:06:55.083Z,15.80
2023-11-01T12:09:23.221Z,15.80
2023-11-01T12:11:58.542Z,15.70
2023-11-01T12:14:27.702Z,15.70
2023-11-01T12:16:57.352Z,15.70
2023-11-01T12:19:25.691Z,15.70
2023-11-01T12:21:52.486Z,15.70
2023-11-01T12:24:30.036Z,15.60
2023-11-01T12:27:10.975Z,15.60
2023-11-01T12:29:40.791Z,15.60
2023-11-01T12:32:35.286Z,15.60
2023-11-01T12:35:05.841Z,15.60
2023-11-01T12:37:37.502Z,15.50
2023-11-01T12:40:14.808Z,15.60
2023-11-01T12:42:44.227Z,15.60
2023-11-01T12:45:12.041Z,15.60
2023-11-01T12:47:52.577Z,15.60
2023-11-01T12:50:32.446Z,15.60
2023-11-01T12:52:59.485Z,15.60
2023-11-01T12:55:27.541Z,15.60
2023-11-01T12:58:01.049Z,15.60
2023-11-01T13:00:30.244Z,15.60
2023-11-01T13:02:58.341Z,15.60
2023-11-01T13:05:25.500Z,15.60
2023-11-01T13:07:56.741Z,15.50
2023-11-01T13:10:23.583Z,15.60
2023-11-01T13:12:50.584Z,15.60
2023-11-01T13:15:17.961Z,15.60
2023-11-01T13:17:45.509Z,15.50
2023-11-01T13:20:12.631Z,15.60
2023-11-01T13:22:39.382Z,15.50
2023-11-01T13:25:07.508Z,15.50
2023-11-01T13:27:34.369Z,15.60
2023-11-01T13:30:01.350Z,15.60
2023-11-01T13:32:28.357Z,15.50
2023-11-01T13:34:55.984Z,15.50
2023-11-01T13:37:22.857Z,15.50
2023-11-01T13:39:49.797Z,15.40
2023-11-01T13:42:17.185Z,15.40
2023-11-01T13:44:45.258Z,15.40
2023-11-01T13:47:12.883Z,15.30
2023-11-01T13:49:41.892Z,15.30
2023-11-01T13:52:12.505Z,15.30
2023-11-01T13:54:39.722Z,15.20
2023-11-01T13:57:06.659Z,15.20
2023-11-01T13:59:33.532Z,15.20
2023-11-01T14:02:00.657Z,15.10
2023-11-01T14:04:27.751Z,15.10
2023-11-01T14:06:54.750Z,15.10
2023-11-01T14:09:22.311Z,15.10
2023-11-01T14:11:53.192Z,15.10
2023-11-01T14:14:21.617Z,15.10
2023-11-01T14:16:48.764Z,15.10
2023-11-01T14:19:15.665Z,15.00
2023-11-01T14:21:42.707Z,15.00
2023-11-01T14:24:11.147Z,14.90
2023-11-01T14:26:39.080Z,14.90
2023-11-01T14:29:06.193Z,14.80
2023-11-01T14:31:33.084Z,14.70
2023-11-01T14:34:00.021Z,14.70
2023-11-01T14:36:27.144Z,14.60
2023-11-01T14:38:54.152Z,14.60
2023-11-01T14:41:21.488Z,14.50
2023-11-01T14:43:48.261Z,14.50
2023-11-01T14:46:15.200Z,14.40
2023-11-01T14:48:44.772Z,14.30
2023-11-01T14:51:11.745Z,14.30
2023-11-01T14:53:38.903Z,14.30
2023-11-01T14:56:17.926Z,14.20
2023-11-01T14:58:48.211Z,14.20
2023-11-01T15:01:15.700Z,14.20
2023-11-01T15:03:43.388Z,14.20
2023-11-01T15:06:10.812Z,14.20
2023-11-01T15:08:42.744Z,14.20
2023-11-01T15:11:12.625Z,14.20
2023-11-01T15:13:39.795Z,14.20
2023-11-01T15:16:07.342Z,14.20
2023-11-01T15:18:34.419Z,14.20
2023-11-01T15:21:01.488Z,14.20
2023-11-01T15:23:28.354Z,14.20
2023-11-01T15:25:57.009Z,14.20
2023-11-01T15:28:23.823Z,14.20
2023-11-01T15:30:50.613Z,14.20
2023-11-01T15:33:19.815Z,14.10
2023-11-01T15:35:46.730Z,14.10
2023-11-01T15:38:13.803Z,14.10
2023-11-01T15:40:40.661Z,14.10
2023-11-01T15:43:08.150Z,14.10
2023-11-01T15:45:35.080Z,14.10
2023-11-01T15:48:02.133Z,14.10
2023-11-01T15:50:31.009Z,14.10
2023-11-01T15:52:57.990Z,14.10
2023-11-01T15:55:25.328Z,14.00
2023-11-01T15:57:52.149Z,14.00
2023-11-01T16:00:19.078Z,14.00
2023-11-01T16:02:46.931Z,14.00
2023-11-01T16:05:13.990Z,13.90
2023-11-01T16:07:41.243Z,13.90
2023-11-01T16:10:08.700Z,13.90
2023-11-01T16:12:35.487Z,13.80
2023-11-01T16:15:02.486Z,13.80
2023-11-01T16:17:29.310Z,13.80
2023-11-01T16:19:57.250Z,13.70
2023-11-01T16:22:26.562Z,13.70
2023-11-01T16:24:53.350Z,13.60
2023-11-01T16:27:22.604Z,13.60
2023-11-01T16:29:49.972Z,13.60
2023-11-01T16:32:16.974Z,13.60
2023-11-01T16:34:46.054Z,13.60
2023-11-01T16:37:13.843Z,13.60
2023-11-01T16:39:40.604Z,13.50
2023-11-01T16:42:09.132Z,13.50
2023-11-01T16:44:36.026Z,13.50
2023-11-01T16:47:02.853Z,13.50
2023-11-01T16:49:29.692Z,13.50
2023-11-01T16:51:56.485Z,13.50
2023-11-01T16:54:23.360Z,13.50
2023-11-01T16:56:50.198Z,13.50
2023-11-01T16:59:17.344Z,13.50
2023-11-01T17:01:44.156Z,13.40
2023-11-01T17:04:11.224Z,13.40
2023-11-01T17:06:38.175Z,13.40
2023-11-01T17:09:05.343Z,13.40
2023-11-01T17:11:32.481Z,13.40
2023-11-01T17:13:59.275Z,13.50
2023-11-01T17:16:26.240Z,13.50
2023-11-01T17:18:53.997Z,13.40
2023-11-01T17:21:20.861Z,13.50
2023-11-01T17:23:48.006Z,13.40
2023-11-01T17:26:30.252Z,13.40
2023-11-01T17:28:58.778Z,13.30
2023-11-01T17:31:48.159Z,13.30
2023-11-01T17:34:44.462Z,13.30
2023-11-01T17:37:12.856Z,13.30
2023-11-01T17:39:42.126Z,13.30
2023-11-01T17:42:11.917Z,13.30
2023-11-01T17:44:41.585Z,13.30
2023-11-01T17:47:10.392Z,13.30
2023-11-01T17:49:48.975Z,13.30
2023-11-01T17:52:36.438Z,13.30
2023-11-01T17:55:05.637Z,13.20
2023-11-01T17:57:34.531Z,13.20
2023-11-01T18:00:05.900Z,13.20
2023-11-01T18:02:32.923Z,13.20
2023-11-01T18:05:01.287Z,13.20
2023-11-01T18:07:28.220Z,13.20
2023-11-01T18:09:58.332Z,13.10
2023-11-01T18:12:25.228Z,13.10
2023-11-01T18:14:55.256Z,13.10
2023-11-01T18:17:23.028Z,13.10
2023-11-01T18:19:50.079Z,13.10
2023-11-01T18:22:45.999Z,13.10
2023-11-01T18:25:47.960Z,13.00
2023-11-01T18:28:15.534Z,13.00
2023-11-01T18:30:44.352Z,13.00
2023-11-01T18:33:11.685Z,13.00
2023-11-01T18:35:38.680Z,12.90
2023-11-01T18:38:09.396Z,12.90
2023-11-01T18:40:36.166Z,12.90
2023-11-01T18:43:02.978Z,12.90
2023-11-01T18:45:31.924Z,12.80
2023-11-01T18:48:00.024Z,12.90
2023-11-01T18:50:26.911Z,12.90
2023-11-01T18:52:54.635Z,12.90
2023-11-01T18:55:32.771Z,12.80
2023-11-01T18:57:59.543Z,12.80
2023-11-01T19:00:29.599Z,12.80
2023-11-01T19:03:05.089Z,12.70
2023-11-01T19:05:33.779Z,12.70
2023-11-01T19:08:01.507Z,12.70
2023-11-01T19:10:40.153Z,12.70
2023-11-01T19:13:07.531Z,12.70
2023-11-01T19:15:40.113Z,12.60
2023-11-01T19:18:09.806Z,12.60
2023-11-01T19:20:37.948Z,12.60
2023-11-01T19:23:05.147Z,12.60
2023-11-01T19:25:31.962Z,12.60
2023-11-01T19:27:58.715Z,12.60
2023-11-01T19:30:25.542Z,12.60
2023-11-01T19:32:52.418Z,12.50
2023-11-01T19:35:19.197Z,12.50
2023-11-01T19:37:46.054Z,12.50
2023-11-01T19:40:12.853Z,12.50
2023-11-01T19:42:39.625Z,12.40
2023-11-01T19:45:08.004Z,12.40
2023-11-01T19:47:37.244Z,12.40
2023-11-01T19:50:05.528Z,12.40
2023-11-01T19:52:32.498Z,12.40
2023-11-01T19:54:59.229Z,12.40
2023-11-01T19:57:26.002Z,12.40
2023-11-01T19:59:52.746Z,12.30
2023-11-01T20:02:21.603Z,12.30
2023-11-01T20:04:49.916Z,12.20
2023-11-01T20:07:17.205Z,12.30
2023-11-01T20:09:44.151Z,12.20
2023-11-01T20:12:12.277Z,12.20
2023-11-01T20:14:41.317Z,12.20
2023-11-01T20:17:11.694Z,12.10
2023-11-01T20:19:38.484Z,12.10
2023-11-01T20:22:05.409Z,12.10
2023-11-01T20:24:32.192Z,12.10
2023-11-01T20:26:58.991Z,12.10
2023-11-01T20:29:27.521Z,12.10
2023-11-01T20:31:54.470Z,12.10
2023-11-01T20:34:21.553Z,12.10
2023-11-01T20:36:48.338Z,12.00
2023-11-01T20:39:15.169Z,12.00
2023-11-01T20:41:42.038Z,11.90
2023-11-01T20:44:08.923Z,11.90
2023-11-01T20:46:35.758Z,11.90
2023-11-01T20:49:02.698Z,11.80
2023-11-01T20:51:29.863Z,11.80
2023-11-01T20:53:59.318Z,11.80
2023-11-01T20:56:26.305Z,11.80
2023-11-01T20:58:53.083Z,11.80
2023-11-01T21:01:19.971Z,11.80
2023-11-01T21:03:47.807Z,11.70
2023-11-01T21:06:14.785Z,11.70
2023-11-01T21:08:42.456Z,11.60
2023-11-01T21:11:09.365Z,11.60
2023-11-01T21:13:36.176Z,11.60
2023-11-01T21:16:03.438Z,11.60
2023-11-01T21:18:32.478Z,11.60
2023-11-01T21:21:01.664Z,11.50
2023-11-01T21:23:28.893Z,11.50
2023-11-01T21:25:55.709Z,11.50
2023-11-01T21:28:22.520Z,11.50
2023-11-01T21:30:49.309Z,11.50
2023-11-01T21:33:21.918Z,11.40
2023-11-01T21:35:48.924Z,11.40
2023-11-01T21:38:17.914Z,11.40
2023-11-01T21:40:47.936Z,11.40
2023-11-01T21:43:18.393Z,11.40
2023-11-01T21:45:50.314Z,11.30
2023-11-01T21:48:24.650Z,11.40
2023-11-01T21:51:03.497Z,11.30
2023-11-01T21:53:34.036Z,11.30
2023-11-01T21:56:01.540Z,11.20
2023-11-01T21:58:29.147Z,11.20
2023-11-01T22:01:03.275Z,11.20
2023-11-01T22:03:48.301Z,11.20
2023-11-01T22:06:17.208Z,11.10
2023-11-01T22:08:59.640Z,11.20
2023-11-01T22:11:34.750Z,11.10
2023-11-01T22:14:05.871Z,11.10
2023-11-01T22:16:35.089Z,11.10
2023-11-01T22:19:07.021Z,11.10
2023-11-01T22:21:38.618Z,11.10
2023-11-01T22:24:07.493Z,11.20
2023-11-01T22:26:34.974Z,11.10
2023-11-01T22:29:07.282Z,11.20
2023-11-01T22:31:49.258Z,11.10
2023-11-01T22:34:16.232Z,11.10
2023-11-01T22:36:48.656Z,11.10
2023-11-01T22:39:41.384Z,11.10
2023-11-01T22:42:12.684Z,11.10
2023-11-01T22:44:41.545Z,11.10
2023-11-01T22:47:08.374Z,11.10
2023-11-01T22:49:35.150Z,11.10
2023-11-01T22:52:02.064Z,11.10
2023-11-01T22:54:29.468Z,11.10
2023-11-01T22:56:57.166Z,11.10
2023-11-01T22:59:23.983Z,11.10
2023-11-01T23:01:51.140Z,11.10
2023-11-01T23:04:19.313Z,11.10
2023-11-01T23:06:47.742Z,11.00
2023-11-01T23:09:15.635Z,11.00
2023-11-01T23:11:42.682Z,11.00
2023-11-01T23:14:10.351Z,11.00
2023-11-01T23:16:39.086Z,11.00
2023-11-01T23:19:09.152Z,11.00
2023-11-01T23:21:36.544Z,11.00
2023-11-01T23:24:12.105Z,11.00
2023-11-01T23:26:55.678Z,11.00
2023-11-01T23:29:34.213Z,11.00
2023-11-01T23:32:04.268Z,11.00
2023-11-01T23:34:43.273Z,11.00
2023-11-01T23:37:19.294Z,11.00
2023-11-01T23:40:06.192Z,11.00
2023-11-01T23:42:34.219Z,11.00
2023-11-01T23:45:06.392Z,11.00
2023-11-01T23:47:52.784Z,11.00
2023-11-01T23:50:43.571Z,11.10
2023-11-01T23:53:18.181Z,11.00
2023-11-01T23:55:50.700Z,11.00
2023-11-01T23:58:30.155Z,11.00
